createdAt,value
2023-05-11T00:02:20.391Z,6.83
2023-05-11T00:05:04.168Z,7.53
2023-05-11T00:07:49.076Z,7.30
2023-05-11T00:10:34.372Z,6.67
2023-05-11T00:13:18.573Z,9.43
2023-05-11T00:16:02.443Z,6.23
2023-05-11T00:18:46.519Z,7.30
2023-05-11T00:21:30.393Z,6.77
2023-05-11T00:24:14.162Z,7.67
2023-05-11T00:26:59.505Z,8.33
2023-05-11T00:29:43.444Z,7.27
2023-05-11T00:32:27.269Z,8.80
2023-05-11T00:35:12.958Z,12.77
2023-05-11T00:37:57.978Z,7.27
2023-05-11T00:40:41.691Z,9.60
2023-05-11T00:43:27.003Z,6.90
2023-05-11T00:46:10.994Z,9.77
2023-05-11T00:48:55.005Z,8.90
2023-05-11T00:51:39.730Z,10.07
2023-05-11T00:54:23.578Z,7.37
2023-05-11T00:57:07.490Z,11.07
2023-05-11T00:59:52.622Z,7.10
2023-05-11T01:02:36.812Z,7.47
2023-05-11T01:05:20.991Z,7.30
2023-05-11T01:08:14.051Z,9.23
2023-05-11T01:11:04.423Z,8.37
2023-05-11T01:13:54.231Z,6.73
2023-05-11T01:16:47.422Z,7.50
2023-05-11T01:19:42.661Z,9.23
2023-05-11T01:22:39.635Z,8.17
2023-05-11T01:25:41.699Z,9.27
2023-05-11T01:28:54.131Z,7.93
2023-05-11T01:31:44.239Z,7.83
2023-05-11T01:34:34.304Z,8.47
2023-05-11T01:37:23.305Z,7.70
2023-05-11T01:40:13.836Z,6.10
2023-05-11T01:43:03.096Z,11.10
2023-05-11T01:45:51.313Z,6.13
2023-05-11T01:48:41.626Z,8.20
2023-05-11T01:51:27.085Z,7.27
2023-05-11T01:54:12.782Z,7.97
2023-05-11T01:56:58.432Z,7.63
2023-05-11T01:59:43.444Z,12.47
2023-05-11T02:02:29.876Z,6.43
2023-05-11T02:05:19.876Z,8.80
2023-05-11T02:08:06.756Z,7.10
2023-05-11T02:10:51.999Z,7.27
2023-05-11T02:13:37.660Z,7.80
2023-05-11T02:16:22.217Z,7.60
2023-05-11T02:19:08.160Z,8.77
2023-05-11T02:22:14.656Z,7.07
2023-05-11T02:24:58.712Z,6.37
2023-05-11T02:27:42.799Z,6.70
2023-05-11T02:30:28.500Z,7.10
2023-05-11T02:33:17.560Z,8.80
2023-05-11T02:36:03.353Z,7.47
2023-05-11T02:38:53.988Z,9.00
2023-05-11T02:41:44.773Z,7.93
2023-05-11T02:44:33.495Z,9.30
2023-05-11T02:47:21.417Z,10.00
2023-05-11T02:50:07.106Z,9.03
2023-05-11T02:52:56.975Z,8.90
2023-05-11T02:55:43.239Z,7.93
2023-05-11T02:58:27.387Z,7.70
2023-05-11T03:01:20.636Z,6.87
2023-05-11T03:04:06.366Z,6.73
2023-05-11T03:06:50.838Z,7.87
2023-05-11T03:09:35.551Z,8.17
2023-05-11T03:12:22.215Z,6.47
2023-05-11T03:15:08.428Z,7.00
2023-05-11T03:17:55.182Z,7.77
2023-05-11T03:20:43.092Z,7.83
2023-05-11T03:23:27.997Z,9.40
2023-05-11T03:26:13.304Z,6.10
2023-05-11T03:29:01.251Z,7.10
2023-05-11T03:31:45.441Z,6.80
2023-05-11T03:34:29.316Z,5.90
2023-05-11T03:37:15.049Z,8.33
2023-05-11T03:40:01.056Z,7.10
2023-05-11T03:42:55.662Z,7.93
2023-05-11T03:45:44.273Z,6.30
2023-05-11T03:48:28.647Z,7.20
2023-05-11T03:51:13.790Z,5.93
2023-05-11T03:53:57.907Z,7.73
2023-05-11T03:56:42.209Z,7.77
2023-05-11T03:59:26.471Z,6.37
2023-05-11T04:02:12.250Z,5.67
2023-05-11T04:04:56.083Z,7.50
2023-05-11T04:07:40.975Z,8.37
2023-05-11T04:10:24.939Z,5.80
2023-05-11T04:13:08.863Z,6.10
2023-05-11T04:15:54.501Z,5.73
2023-05-11T04:18:39.842Z,7.53
2023-05-11T04:21:23.720Z,6.60
2023-05-11T04:24:07.918Z,6.10
2023-05-11T04:26:57.195Z,13.17
2023-05-11T04:29:41.095Z,6.30
2023-05-11T04:32:24.942Z,6.57
2023-05-11T04:35:13.184Z,8.67
2023-05-11T04:37:57.146Z,6.30
2023-05-11T04:40:41.210Z,5.47
2023-05-11T04:43:26.618Z,7.53
2023-05-11T04:46:10.699Z,7.63
2023-05-11T04:48:54.526Z,4.47
2023-05-11T04:51:40.663Z,6.03
2023-05-11T04:54:26.251Z,6.67
2023-05-11T04:57:10.125Z,4.20
2023-05-11T04:59:54.079Z,5.27
2023-05-11T05:02:37.979Z,7.50
2023-05-11T05:05:22.708Z,4.40
2023-05-11T05:08:08.499Z,5.00
2023-05-11T05:10:52.435Z,3.60
2023-05-11T05:13:36.405Z,3.83
2023-05-11T05:16:20.292Z,4.87
2023-05-11T05:19:04.207Z,5.07
2023-05-11T05:21:48.913Z,3.03
2023-05-11T05:24:34.719Z,4.80
2023-05-11T05:27:20.163Z,5.63
2023-05-11T05:30:04.315Z,2.70
2023-05-11T05:32:49.032Z,4.33
2023-05-11T05:35:33.057Z,3.03
2023-05-11T05:38:17.888Z,2.37
2023-05-11T05:41:03.527Z,3.43
2023-05-11T05:43:51.687Z,2.27
2023-05-11T05:46:35.783Z,2.43
2023-05-11T05:49:19.728Z,2.93
2023-05-11T05:52:04.255Z,4.13
2023-05-11T05:54:49.389Z,2.77
2023-05-11T05:57:34.933Z,2.30
2023-05-11T06:00:21.673Z,3.43
2023-05-11T06:03:13.949Z,3.87
2023-05-11T06:05:58.231Z,4.37
2023-05-11T06:08:43.535Z,3.83
2023-05-11T06:11:27.463Z,4.03
2023-05-11T06:14:12.700Z,4.53
2023-05-11T06:16:57.482Z,5.37
2023-05-11T06:19:41.443Z,5.27
2023-05-11T06:22:26.132Z,2.80
2023-05-11T06:25:10.464Z,5.37
2023-05-11T06:27:55.217Z,3.83
2023-05-11T06:30:40.891Z,2.70
2023-05-11T06:33:26.746Z,5.03
2023-05-11T06:36:12.391Z,2.93
2023-05-11T06:38:56.419Z,2.37
2023-05-11T06:41:40.644Z,5.40
2023-05-11T06:44:24.892Z,2.50
2023-05-11T06:47:12.236Z,3.87
2023-05-11T06:49:56.321Z,6.03
2023-05-11T06:52:40.308Z,3.33
2023-05-11T06:55:27.877Z,3.13
2023-05-11T06:58:12.014Z,2.57
2023-05-11T07:00:56.643Z,3.85
2023-05-11T07:03:42.744Z,5.67
2023-05-11T07:06:27.295Z,3.20
2023-05-11T07:09:11.657Z,3.33
2023-05-11T07:11:55.750Z,3.63
2023-05-11T07:14:39.706Z,3.47
2023-05-11T07:17:24.143Z,3.50
2023-05-11T07:20:10.993Z,3.47
2023-05-11T07:22:58.232Z,3.40
2023-05-11T07:25:42.097Z,3.67
2023-05-11T07:28:26.591Z,6.67
2023-05-11T07:31:10.740Z,3.17
2023-05-11T07:33:54.799Z,4.43
2023-05-11T07:36:40.278Z,22.27
2023-05-11T07:39:24.268Z,7.67
2023-05-11T07:42:08.423Z,2.90
2023-05-11T07:44:52.384Z,3.17
2023-05-11T07:47:37.023Z,3.00
2023-05-11T07:50:23.938Z,3.93
2023-05-11T07:53:10.078Z,3.85
2023-05-11T07:55:54.573Z,5.07
2023-05-11T07:58:38.447Z,2.53
2023-05-11T08:01:24.030Z,6.60
2023-05-11T08:04:07.978Z,4.10
2023-05-11T08:06:52.074Z,4.60
2023-05-11T08:09:37.700Z,3.20
2023-05-11T08:12:21.626Z,2.57
2023-05-11T08:15:06.632Z,12.15
2023-05-11T08:17:51.238Z,2.87
2023-05-11T08:20:35.427Z,3.20
2023-05-11T08:23:19.544Z,3.63
2023-05-11T08:26:04.993Z,4.57
2023-05-11T08:28:49.083Z,6.87
2023-05-11T08:31:33.114Z,2.78
2023-05-11T08:34:20.180Z,3.88
2023-05-11T08:37:04.546Z,3.30
2023-05-11T08:39:48.420Z,3.33
2023-05-11T08:42:35.948Z,6.95
2023-05-11T08:45:22.725Z,4.05
2023-05-11T08:48:07.545Z,2.80
2023-05-11T08:50:52.107Z,2.97
2023-05-11T08:53:36.274Z,2.95
2023-05-11T08:56:24.076Z,2.40
2023-05-11T08:59:09.725Z,4.97
2023-05-11T09:01:54.699Z,3.93
2023-05-11T09:04:39.217Z,6.68
2023-05-11T09:07:25.840Z,2.25
2023-05-11T09:10:12.911Z,4.28
2023-05-11T09:12:57.969Z,2.90
2023-05-11T09:15:43.229Z,4.28
2023-05-11T09:18:28.014Z,3.30
2023-05-11T09:21:13.648Z,5.40
2023-05-11T09:23:59.181Z,6.22
2023-05-11T09:26:43.074Z,3.83
2023-05-11T09:29:30.456Z,2.50
2023-05-11T09:32:17.548Z,4.07
2023-05-11T09:35:20.851Z,6.32
2023-05-11T09:38:07.233Z,3.70
2023-05-11T09:40:53.452Z,4.00
2023-05-11T09:43:37.491Z,3.28
2023-05-11T09:46:22.931Z,6.85
2023-05-11T09:49:08.929Z,5.82
2023-05-11T09:52:02.581Z,3.33
2023-05-11T09:54:48.099Z,3.17
2023-05-11T09:57:33.217Z,2.80
2023-05-11T10:00:17.624Z,4.78
2023-05-11T10:03:03.109Z,2.83
2023-05-11T10:06:00.073Z,4.07
2023-05-11T10:08:44.107Z,4.88
2023-05-11T10:11:28.245Z,2.80
2023-05-11T10:14:13.485Z,4.63
2023-05-11T10:16:59.519Z,6.32
2023-05-11T10:19:43.900Z,2.15
2023-05-11T10:22:30.788Z,2.47
2023-05-11T10:25:16.378Z,2.83
2023-05-11T10:28:00.535Z,2.83
2023-05-11T10:30:46.013Z,3.78
2023-05-11T10:33:30.551Z,2.90
2023-05-11T10:36:19.251Z,2.50
2023-05-11T10:39:05.572Z,4.03
2023-05-11T10:42:02.098Z,2.45
2023-05-11T10:45:06.986Z,3.13
2023-05-11T10:48:31.736Z,3.60
2023-05-11T10:51:31.054Z,2.65
2023-05-11T10:54:37.720Z,5.10
2023-05-11T10:57:47.857Z,2.55
2023-05-11T11:01:11.837Z,2.35
2023-05-11T11:04:00.474Z,3.10
2023-05-11T11:06:45.441Z,3.30
2023-05-11T11:09:51.407Z,2.70
2023-05-11T11:12:35.959Z,2.47
2023-05-11T11:15:20.380Z,2.75
2023-05-11T11:18:24.555Z,3.28
2023-05-11T11:21:13.803Z,2.55
2023-05-11T11:23:57.860Z,4.75
2023-05-11T11:26:50.748Z,4.85
2023-05-11T11:29:36.017Z,3.28
2023-05-11T11:32:28.948Z,2.60
2023-05-11T11:35:46.060Z,3.10
2023-05-11T11:38:32.622Z,3.80
2023-05-11T11:41:30.262Z,2.58
2023-05-11T11:44:23.520Z,3.72
2023-05-11T11:47:15.074Z,2.40
2023-05-11T11:50:14.372Z,4.60
2023-05-11T11:52:58.502Z,5.60
2023-05-11T11:55:50.181Z,2.50
2023-05-11T11:59:00.499Z,5.00
2023-05-11T12:01:47.082Z,4.18
2023-05-11T12:04:52.171Z,2.72
2023-05-11T12:07:40.516Z,3.47
2023-05-11T12:10:24.782Z,3.15
2023-05-11T12:13:11.888Z,3.53
2023-05-11T12:16:09.261Z,3.10
2023-05-11T12:18:58.516Z,5.68
2023-05-11T12:21:46.577Z,3.78
2023-05-11T12:24:31.873Z,3.35
2023-05-11T12:27:18.677Z,3.00
2023-05-11T12:30:02.717Z,4.32
2023-05-11T12:35:42.047Z,3.03
2023-05-11T12:38:27.282Z,3.85
2023-05-11T12:41:11.268Z,2.30
2023-05-11T12:43:56.073Z,3.20
2023-05-11T12:46:40.645Z,2.80
2023-05-11T12:49:27.242Z,3.38
2023-05-11T12:52:15.233Z,3.58
2023-05-11T12:55:01.211Z,3.25
2023-05-11T12:57:50.493Z,3.70
2023-05-11T13:00:34.887Z,3.70
2023-05-11T13:03:22.974Z,2.22
2023-05-11T13:06:08.335Z,3.55
2023-05-11T13:08:53.983Z,2.58
2023-05-11T13:11:37.960Z,4.10
2023-05-11T13:14:21.915Z,3.95
2023-05-11T13:17:06.287Z,2.90
2023-05-11T13:19:50.442Z,3.60
2023-05-11T13:22:34.421Z,3.17
2023-05-11T13:25:21.429Z,3.05
2023-05-11T13:28:06.063Z,3.85
2023-05-11T13:30:51.523Z,2.40
2023-05-11T13:33:35.955Z,6.07
2023-05-11T13:36:21.050Z,7.90
2023-05-11T13:39:05.215Z,2.78
2023-05-11T13:41:50.702Z,2.90
2023-05-11T13:44:34.648Z,4.07
2023-05-11T13:47:18.582Z,3.72
2023-05-11T13:50:02.872Z,3.65
2023-05-11T13:52:49.614Z,4.88
2023-05-11T13:55:33.749Z,4.20
2023-05-11T13:58:19.219Z,3.88
2023-05-11T14:01:07.815Z,4.05
2023-05-11T14:03:57.147Z,3.58
2023-05-11T14:06:42.132Z,2.28
2023-05-11T14:09:26.471Z,2.72
2023-05-11T14:12:10.694Z,3.85
2023-05-11T14:14:56.027Z,5.47
2023-05-11T14:17:43.354Z,3.60
2023-05-11T14:20:27.612Z,5.47
2023-05-11T14:23:11.983Z,2.63
2023-05-11T14:25:56.832Z,2.40
2023-05-11T14:28:41.594Z,4.07
2023-05-11T14:31:28.030Z,4.00
2023-05-11T14:34:13.998Z,4.85
2023-05-11T14:36:58.441Z,3.08
2023-05-11T14:39:42.963Z,5.10
2023-05-11T14:42:27.052Z,3.03
2023-05-11T14:45:12.086Z,4.30
2023-05-11T14:47:57.434Z,2.80
2023-05-11T14:50:43.175Z,2.78
2023-05-11T14:53:27.197Z,3.17
2023-05-11T14:56:11.423Z,3.53
2023-05-11T14:58:56.370Z,2.90
2023-05-11T15:01:40.315Z,3.77
2023-05-11T15:04:25.942Z,2.03
2023-05-11T15:07:09.845Z,9.50
2023-05-11T15:09:54.182Z,2.75
2023-05-11T15:12:38.144Z,3.63
2023-05-11T15:15:21.919Z,4.47
2023-05-11T15:18:05.856Z,6.82
2023-05-11T15:20:51.382Z,3.40
2023-05-11T15:23:35.247Z,3.13
2023-05-11T15:26:19.576Z,2.20
2023-05-11T15:29:03.708Z,4.30
2023-05-11T15:31:47.776Z,3.47
2023-05-11T15:34:32.219Z,3.43
2023-05-11T15:37:17.696Z,3.70
2023-05-11T15:40:01.761Z,2.93
2023-05-11T15:42:48.346Z,2.70
2023-05-11T15:45:32.583Z,2.63
2023-05-11T15:48:16.828Z,2.65
2023-05-11T15:51:02.252Z,3.23
2023-05-11T15:53:47.677Z,3.60
2023-05-11T15:56:31.684Z,3.90
2023-05-11T15:59:15.727Z,3.10
2023-05-11T16:02:00.030Z,7.88
2023-05-11T16:04:44.429Z,4.35
2023-05-11T16:07:28.815Z,5.57
2023-05-11T16:10:14.433Z,3.28
2023-05-11T16:12:58.952Z,3.22
2023-05-11T16:15:43.628Z,7.03
2023-05-11T16:18:28.011Z,9.95
2023-05-11T16:21:11.856Z,12.27
2023-05-11T16:23:56.165Z,8.13
2023-05-11T16:26:41.886Z,4.33
2023-05-11T16:29:26.616Z,3.53
2023-05-11T16:32:10.927Z,5.43
2023-05-11T16:34:55.369Z,3.73
2023-05-11T16:37:39.991Z,4.37
2023-05-11T16:40:24.143Z,6.30
2023-05-11T16:43:09.662Z,4.00
2023-05-11T16:45:54.154Z,6.33
2023-05-11T16:48:38.547Z,4.50
2023-05-11T16:51:23.430Z,4.03
2023-05-11T16:54:08.546Z,5.40
2023-05-11T16:56:54.374Z,5.23
2023-05-11T16:59:40.933Z,4.00
2023-05-11T17:02:25.271Z,4.60
2023-05-11T17:05:12.329Z,6.43
2023-05-11T17:07:57.425Z,4.47
2023-05-11T17:10:42.758Z,6.27
2023-05-11T17:13:27.567Z,3.83
2023-05-11T17:16:14.210Z,4.70
2023-05-11T17:18:59.640Z,5.30
2023-05-11T17:21:45.316Z,6.37
2023-05-11T17:24:30.615Z,8.97
2023-05-11T17:27:15.776Z,4.93
2023-05-11T17:30:00.854Z,4.97
2023-05-11T17:32:50.654Z,7.53
2023-05-11T17:35:35.930Z,5.87
2023-05-11T17:38:20.935Z,5.33
2023-05-11T17:41:06.720Z,9.37
2023-05-11T17:43:51.715Z,5.07
2023-05-11T17:46:37.163Z,7.23
2023-05-11T17:49:23.548Z,8.33
2023-05-11T17:52:09.378Z,8.70
2023-05-11T17:54:54.373Z,6.20
2023-05-11T17:57:39.463Z,6.43
2023-05-11T18:00:25.337Z,5.67
2023-05-11T18:03:10.821Z,5.73
2023-05-11T18:05:57.646Z,5.00
2023-05-11T18:08:42.795Z,8.10
2023-05-11T18:11:28.157Z,7.00
2023-05-11T18:14:13.347Z,6.50
2023-05-11T18:16:58.536Z,7.80
2023-05-11T18:19:43.679Z,5.60
2023-05-11T18:22:31.738Z,6.50
2023-05-11T18:25:16.888Z,6.47
2023-05-11T18:28:01.953Z,9.40
2023-05-11T18:30:47.071Z,6.87
2023-05-11T18:33:32.109Z,6.33
2023-05-11T18:36:17.372Z,8.57
2023-05-11T18:39:04.205Z,6.73
2023-05-11T18:41:49.298Z,7.43
2023-05-11T18:44:35.540Z,6.47
2023-05-11T18:47:19.754Z,7.87
2023-05-11T18:50:07.509Z,8.00
2023-05-11T18:52:51.923Z,6.87
2023-05-11T18:55:51.855Z,6.43
2023-05-11T18:58:38.307Z,6.73
2023-05-11T19:01:30.266Z,6.30
2023-05-11T19:04:22.802Z,6.77
2023-05-11T19:07:08.071Z,5.30
2023-05-11T19:09:53.195Z,7.83
2023-05-11T19:12:39.809Z,6.47
2023-05-11T19:15:24.912Z,6.20
2023-05-11T19:18:11.383Z,8.90
2023-05-11T19:20:56.278Z,7.90
2023-05-11T19:23:41.527Z,7.27
2023-05-11T19:26:27.018Z,5.90
2023-05-11T19:29:17.860Z,6.37
2023-05-11T19:32:03.114Z,6.93
2023-05-11T19:34:48.807Z,5.60
2023-05-11T19:37:33.828Z,6.57
2023-05-11T19:40:44.630Z,8.83
2023-05-11T19:43:24.880Z,6.40
2023-05-11T19:46:11.449Z,7.93
2023-05-11T19:48:56.834Z,7.07
2023-05-11T19:51:41.889Z,11.20
2023-05-11T19:54:26.870Z,8.70
2023-05-11T19:57:11.927Z,6.90
2023-05-11T19:59:57.366Z,6.90
2023-05-11T20:02:43.770Z,6.47
2023-05-11T20:05:29.035Z,7.20
2023-05-11T20:08:14.168Z,8.87
2023-05-11T20:10:59.141Z,9.00
2023-05-11T20:13:44.834Z,6.70
2023-05-11T20:16:30.148Z,7.33
2023-05-11T20:19:17.030Z,8.10
2023-05-11T20:22:01.974Z,6.23
2023-05-11T20:24:46.221Z,8.57
2023-05-11T20:27:31.134Z,9.40
2023-05-11T20:30:16.713Z,7.87
2023-05-11T20:35:53.170Z,6.73
2023-05-11T20:38:38.529Z,10.80
2023-05-11T20:41:24.094Z,6.40
2023-05-11T20:44:14.457Z,7.40
2023-05-11T20:46:59.517Z,8.37
2023-05-11T20:49:44.476Z,9.87
2023-05-11T20:52:30.874Z,7.77
2023-05-11T20:55:16.778Z,7.73
2023-05-11T20:58:01.416Z,7.17
2023-05-11T21:00:46.410Z,7.60
2023-05-11T21:03:31.414Z,8.27
2023-05-11T21:06:16.680Z,10.00
2023-05-11T21:09:04.484Z,9.53
2023-05-11T21:11:49.723Z,7.87
2023-05-11T21:14:34.445Z,10.53
2023-05-11T21:17:19.203Z,9.30
2023-05-11T21:20:05.134Z,9.27
2023-05-11T21:22:50.574Z,8.70
2023-05-11T21:25:36.806Z,8.93
2023-05-11T21:28:21.107Z,8.33
2023-05-11T21:31:05.455Z,8.40
2023-05-11T21:33:49.499Z,10.30
2023-05-11T21:36:33.483Z,9.77
2023-05-11T21:39:17.374Z,10.53
2023-05-11T21:42:03.650Z,8.43
2023-05-11T21:44:47.449Z,8.37
2023-05-11T21:47:31.455Z,8.53
2023-05-11T21:50:15.363Z,8.33
2023-05-11T21:52:59.256Z,8.30
2023-05-11T21:55:43.047Z,8.57
2023-05-11T21:58:29.122Z,8.80
2023-05-11T22:01:13.022Z,11.23
2023-05-11T22:03:56.998Z,9.23
2023-05-11T22:06:41.075Z,11.80
2023-05-11T22:09:24.964Z,8.13
2023-05-11T22:12:09.855Z,8.93
2023-05-11T22:14:55.291Z,11.37
2023-05-11T22:17:39.581Z,8.50
2023-05-11T22:20:23.436Z,8.43
2023-05-11T22:23:07.334Z,8.00
2023-05-11T22:25:51.326Z,8.77
2023-05-11T22:28:35.092Z,7.93
2023-05-11T22:31:21.526Z,8.27
2023-05-11T22:34:05.500Z,11.37
2023-05-11T22:36:49.338Z,8.20
2023-05-11T22:39:33.335Z,9.17
2023-05-11T22:42:17.219Z,9.03
2023-05-11T22:45:00.990Z,8.07
2023-05-11T22:47:46.982Z,8.33
2023-05-11T22:50:31.140Z,7.87
2023-05-11T22:53:15.053Z,8.63
2023-05-11T22:56:03.878Z,8.87
2023-05-11T22:58:47.753Z,8.73
2023-05-11T23:01:31.645Z,8.83
2023-05-11T23:04:16.864Z,8.27
2023-05-11T23:07:01.045Z,9.37
2023-05-11T23:09:45.238Z,9.83
2023-05-11T23:12:29.075Z,9.47
2023-05-11T23:15:13.009Z,10.50
2023-05-11T23:17:57.033Z,9.90
2023-05-11T23:20:42.423Z,8.67
2023-05-11T23:23:26.862Z,9.30
2023-05-11T23:26:10.724Z,9.30
2023-05-11T23:28:54.589Z,9.30
2023-05-11T23:31:38.546Z,8.83
2023-05-11T23:34:22.387Z,10.13
2023-05-11T23:37:07.632Z,9.40
2023-05-11T23:39:51.833Z,8.90
2023-05-11T23:42:35.717Z,8.63
2023-05-11T23:45:19.796Z,8.93
2023-05-11T23:48:03.729Z,9.03
2023-05-11T23:50:47.690Z,10.43
2023-05-11T23:53:32.990Z,9.60
2023-05-11T23:56:16.831Z,8.70
2023-05-11T23:59:00.780Z,9.10
